Logo AVAMET
Benvolgut visitant, si us plau, ingressa Recuperar contrasenya
AVAMET paisatges

Bunyol Camp de Futbol

Dades diàries. Acumulats / Últims 30 dies disponibles

Data Temperatura (°C) Humitat rel. (%) Pressió rel. (hPa) Vent (km/h) Precipitació
Mínima Mitjana Màxima Amplitud
tèrmica
Mínima Mitjana Màxima Mínima Mitjana Màxima Predom. Mitjana Ràfega
màxima
Total
(mm)
Índex-n
Mínima Mitjana Màxima Mínima Mitjana Màxima n
0 a 1
P0 max
mm 5'
Dades mensuals acumulades fins l'últim dia disponible
06/2020 15,9 15,9 15,9 20,9 27,2 27,2 27,2 11,3 46 72 100 1.016 1.018 1.019   4,5 27,8 0,0
Dades anuals acumulades fins l'últim dia disponible
2020 2,3 9,7 18,7 13,7 6,7 19,1 30,8 28,5 7 78 100 964 1.021 1.034   7,2 89,5 181,5
Últims 30 dies disponibles
01-06-2020 15,9     20,9     27,2 11,3 46 72 100 1.016 1.018 1.019 SE 4,5 27,8 0,0
31-05-2020 12,8     19,6     27,0 14,2 43 74 94 1.014 1.016 1.018 SSE 4,8 29,0 0,0
30-05-2020 13,9     20,0     25,8 11,9 38 68 100 1.016 1.018 1.020 SE 3,8 37,4 0,0
29-05-2020 12,8     20,7     28,6 15,8 25 56 82 1.016 1.019 1.024 SE 5,5 36,3 0,0
28-05-2020 16,5     19,6     23,9 7,4 42 77 100 1.023 1.026 1.029 ENE 4,8 28,1 0,0
27-05-2020 14,7     19,7     25,0 10,3 43 74 100 1.026 1.027 1.029 SE 7,8 30,5 0,0
26-05-2020 15,5     19,5     24,7 9,2 47 77 100 1.026 1.027 1.029 SE 4,8 23,3 0,0
25-05-2020 13,8     18,3     22,6 8,8 64 83 100 1.025 1.027 1.029 SSE 2,8 30,9 0,0
24-05-2020 17,7     19,7     23,2 5,5 56 86 100 1.028 1.029 1.030 NE 5,9 25,5 0,0
23-05-2020 16,7     22,5     30,0 13,3 40 61 78 1.025 1.026 1.028 SSE 3,7 22,6 0,0
22-05-2020 18,7     23,7     30,8 12,1 42 61 78 1.023 1.025 1.027 SE 4,1 27,8 0,0
21-05-2020 16,1     22,7     30,5 14,4 34 51 73 1.020 1.021 1.024 S 3,3 28,3 0,0
20-05-2020 15,8     22,2     29,4 13,6 40 55 75 1.017 1.018 1.020 S 4,2 27,8 0,0
19-05-2020 14,1     21,4     30,6 16,5 35 61 83 1.017 1.020 1.023 S 4,3 24,4 0,0
18-05-2020 14,2     19,5     26,5 12,3 40 73 92 1.020 1.022 1.024 S 6,2 28,1 0,0
17-05-2020 13,5     17,3     22,9 9,4 54 81 100 978 1.020 1.024 SSO 6,8 30,5 0,0
16-05-2020 13,5     14,9     18,3 4,8 78 93 100 1.016 1.018 1.019 S 5,1 36,3 1,2
15-05-2020 11,1     14,6     18,0 6,9 63 88 100 1.012 1.014 1.017 SSE 4,9 21,3
14-05-2020 11,3     14,0     17,0 5,7 65 85 100 1.006 1.008 1.012 SO 8,6 47,2 11,2
13-05-2020 12,0     16,4     21,8 9,8 47 74 100 1.007 1.008 1.010 OSO 10,4 43,1 0,0
12-05-2020 13,3     16,5     20,2 6,9 58 83 100 1.010 1.011 1.014 S 8,7 35,2
11-05-2020 13,7     17,7     23,1 9,4 41 68 89 1.009 1.011 1.013 OSO 13,4 52,2 0,0
10-05-2020 13,7     17,1     22,1 8,4 39 73 100 1.006 1.008 1.012 SO 10,8 52,2 1,2
09-05-2020 14,5     17,5     22,9 8,4 78 95 100 1.012 1.014 1.018 SE 3,3 20,5 1,2
08-05-2020 13,6     17,7     21,5 7,9 70 84 100 1.017 1.019 1.021 ESE 4,4 25,5 0,0
07-05-2020 15,2     19,1     23,6 8,4 49 75 100 1.019 1.021 1.021 SE 4,5 23,7 0,0
06-05-2020 15,2     20,4     27,0 11,8 47 75 95 1.017 1.019 1.021 SSE 4,5 25,5 0,0
05-05-2020 16,0     21,7     30,0 14,0 35 68 97 1.015 1.016 1.018 SSO 3,8 27,0 0,0
04-05-2020 14,4     19,6     26,8 12,4 57 79 100 1.016 1.018 1.020 S 2,5 27,4 0,0
03-05-2020 17,2     22,3     27,0 9,8 44 54 79 1.019 1.020 1.022 S 8,4 33,9 0,0
Últims 13 mesos disponibles
04/2020 5,7 10,4 14,7 13,9 13,2 19,1 23,4 17,7 58 85 100 1.008 1.017 1.026 SSE 5,4 60,3 50,8
03/2020 2,4 8,7 14,4 12,1 7,5 16,5 26,6 24,2 46 79 100 1.008 1.018 1.027 OSO 8,6 89,5 80,4
02/2020 4,1 8,5 13,7 13,3 8,3 19,7 27,2 23,1 35 73 100 1.015 1.025 1.032 SO 8,3 58,3
01/2020 2,3 6,1 13,1 9,6 6,7 14,9 20,5 18,2 47 80 100 1.017 1.025 1.032 OSO 7,1 60,3
12/2019 3,3 8,6 15,1 11,7 10,4 16,2 23,3 20,0 59 81 100 1.004 1.019 1.032 SO 11,4 89,9 76,2
11/2019 3,7 9,6 18,2 12,8 13,4 17,4 26,1 22,4 46 70 99 1.001 1.012 1.019 OSO 15,2 81,2 7,2
10/2019 9,6 14,3 18,2 18,5 14,9 24,8 32,1 22,5 43 74 97 1.009 1.018 1.023 OSO 8,5 56,8 19,6
09/2019 13,3 17,9 20,4 21,9 18,4 27,3 34,2 20,9 27 78 98 1.013 1.020 1.026 SSE 6,9 45,7 143,4
08/2019 16,2 20,0 25,0 24,9 23,3 31,4 38,4 22,2 26 73 95 1.014 1.019 1.023 SE 7,0 45,0 16,7
07/2019 18,5 20,3 23,1 25,6 24,9 31,5 36,9 18,4 37 65 92 1.010 1.017 1.024 SSE 8,4 52,9 3,0
06/2019 9,7 16,0 20,8 21,6 20,6 27,7 37,2 27,5 25 61 92 1.011 1.018 1.023 SSE 7,9 69,4 1,0
05/2019 6,3 11,9 15,1 16,8 17,9 22,8 27,7 21,4 46 69 96 1.009 1.017 1.025 S 7,0 60,3 9,0
04/2019 6,4 9,4 11,7 13,3 12,2 18,6 27,7 21,3 33 72 100 1.002 1.014 1.026 SO 9,5 64,4 117,0
Tots els anys disponibles
2019 1,1 12,3 25,0 16,8 10,4 22,6 38,4 37,3 25 68 100 997 1.018 1.033 OSO 9,3 89,9
2018 0,1 13,3 23,6 17,5 8,3 23,0 37,4 37,3 24 72 100 997 1.017 1.030 OSO 8,7 78,1
2017 -1,4 9,5 24,4 12,3 0,6 15,6 29,4 30,8 19 60 97 501 958 1.015 50,0
2016 0,9 8,6 27,3 13,1 7,7 17,5 38,1 37,2 20 58 93 981 1.009 1.027 99,0
2015 5,7 15,4 26,9 20,4 7,1 25,4 41,2 35,5 2 63 98 -49 957 1.066 71,0
2014 3,2 13,6 25,4 18,6 8,3 23,6 38,7 35,5 19 58 94 976 1.007 1.019 105,0
Temperatura (°C)
Humitat relativa (%)
Velocitat del vent i ràfega màxima (km/h)
Direcció del vent (°)
Pressió (hPa)
Precipitació (mm)
Nota sobre les dades: s'avisa a l'usuari de la provisionalitat i no oficialitat d'aquestes dades
Logo AVAMET blanc
Web allotjada a Sollutia
Llicència de Creative CommonsLa web d'AVAMET i els seus continguts estan subjectes a una llicència de
Reconeixement - No Comercial - Compartir igual
Últimes estacions: Xodos - la Vega (Soci), la Vall d'Alba - Centre (Ajuntament soci), Chera (Ajuntament soci) - - -